createdAt,value
2023-03-04T00:03:30.739Z,5.46
2023-03-04T00:07:35.492Z,5.37
2023-03-04T00:11:38.830Z,5.27
2023-03-04T00:15:41.759Z,5.16
2023-03-04T00:19:45.218Z,5.06
2023-03-04T00:23:50.079Z,4.98
2023-03-04T00:27:53.660Z,4.93
2023-03-04T00:31:56.655Z,4.88
2023-03-04T00:36:00.265Z,4.84
2023-03-04T00:40:05.568Z,4.81
2023-03-04T00:44:09.507Z,4.78
2023-03-04T00:48:13.153Z,4.75
2023-03-04T00:52:16.397Z,4.71
2023-03-04T00:56:20.702Z,4.70
2023-03-04T01:00:24.420Z,4.70
2023-03-04T01:04:28.047Z,4.71
2023-03-04T01:08:30.916Z,4.71
2023-03-04T01:12:35.947Z,4.70
2023-03-04T01:16:39.251Z,4.69
2023-03-04T01:20:42.696Z,4.67
2023-03-04T01:24:46.123Z,4.65
2023-03-04T01:28:50.489Z,4.65
2023-03-04T01:32:53.899Z,4.66
2023-03-04T01:36:57.325Z,4.66
2023-03-04T01:41:00.785Z,4.69
2023-03-04T01:45:06.325Z,4.68
2023-03-04T01:49:14.112Z,4.69
2023-03-04T01:53:22.358Z,4.67
2023-03-04T01:57:28.333Z,4.66
2023-03-04T02:01:33.113Z,4.65
2023-03-04T02:05:38.562Z,4.63
2023-03-04T02:10:09.599Z,4.61
2023-03-04T02:14:14.610Z,4.59
2023-03-04T02:18:22.420Z,4.57
2023-03-04T02:22:25.992Z,4.57
2023-03-04T02:26:32.683Z,4.57
2023-03-04T02:30:37.116Z,4.56
2023-03-04T02:34:46.085Z,4.54
2023-03-04T02:38:51.287Z,4.54
2023-03-04T02:42:56.467Z,4.54
2023-03-04T02:47:00.203Z,4.51
2023-03-04T02:51:04.235Z,4.52
2023-03-04T02:55:09.974Z,4.54
2023-03-04T02:59:14.786Z,4.57
2023-03-04T03:03:18.140Z,4.61
2023-03-04T03:07:21.727Z,4.63
2023-03-04T03:11:26.683Z,4.66
2023-03-04T03:15:31.854Z,4.69
2023-03-04T03:24:56.661Z,4.72
2023-03-04T03:29:00.037Z,4.70
2023-03-04T03:33:04.963Z,4.68
2023-03-04T03:37:08.424Z,4.64
2023-03-04T03:41:11.502Z,4.60
2023-03-04T03:45:14.945Z,4.54
2023-03-04T03:49:19.524Z,4.47
2023-03-04T03:53:22.945Z,4.41
2023-03-04T03:57:25.934Z,4.30
2023-03-04T04:01:29.987Z,4.28
2023-03-04T04:05:34.337Z,4.24
2023-03-04T04:09:37.629Z,4.19
2023-03-04T04:13:40.585Z,4.16
2023-03-04T04:17:43.953Z,4.14
2023-03-04T04:21:49.279Z,4.14
2023-03-04T04:25:52.541Z,4.12
2023-03-04T04:29:55.530Z,4.12
2023-03-04T04:33:59.052Z,4.14
2023-03-04T04:38:03.554Z,4.15
2023-03-04T04:42:07.457Z,4.17
2023-03-04T04:46:10.617Z,4.16
2023-03-04T04:50:14.669Z,4.17
2023-03-04T04:54:19.319Z,4.15
2023-03-04T04:58:22.771Z,4.14
2023-03-04T05:02:25.713Z,4.11
2023-03-04T05:06:31.134Z,4.08
2023-03-04T05:10:35.406Z,4.07
2023-03-04T05:14:39.326Z,4.04
2023-03-04T05:18:42.486Z,4.03
2023-03-04T05:22:46.789Z,4.01
2023-03-04T05:26:51.031Z,4.00
2023-03-04T05:30:54.694Z,3.98
2023-03-04T05:34:57.806Z,3.97
2023-03-04T05:39:01.128Z,3.97
2023-03-04T05:43:05.612Z,3.96
2023-03-04T05:47:09.107Z,3.95
2023-03-04T05:51:12.884Z,3.96
2023-03-04T05:55:16.382Z,3.96
2023-03-04T05:59:20.949Z,3.95
2023-03-04T06:03:25.313Z,3.93
2023-03-04T06:07:28.348Z,3.92
2023-03-04T06:11:31.969Z,3.94
2023-03-04T06:15:36.726Z,3.94
2023-03-04T06:19:42.017Z,3.99
2023-03-04T06:23:45.632Z,4.04
2023-03-04T06:27:50.625Z,4.09
2023-03-04T06:31:55.769Z,4.17
2023-03-04T06:35:59.108Z,4.23
2023-03-04T06:40:03.956Z,4.31
2023-03-04T06:44:07.275Z,4.38
2023-03-04T06:48:13.832Z,4.48
2023-03-04T06:52:16.856Z,4.61
2023-03-04T06:56:20.331Z,4.71
2023-03-04T07:00:24.797Z,4.83
2023-03-04T07:04:29.911Z,4.96
2023-03-04T07:08:32.775Z,5.12
2023-03-04T07:12:36.036Z,5.29
2023-03-04T07:16:39.355Z,5.47
2023-03-04T07:20:44.102Z,5.69
2023-03-04T07:24:47.386Z,5.92
2023-03-04T07:28:52.725Z,6.14
2023-03-04T07:32:58.443Z,6.36
2023-03-04T07:37:03.049Z,6.60
2023-03-04T07:41:06.673Z,6.89
2023-03-04T07:45:11.954Z,7.10
2023-03-04T07:49:15.735Z,7.26
2023-03-04T07:53:20.901Z,7.45
2023-03-04T07:57:23.980Z,7.57
2023-03-04T08:01:30.347Z,7.68
2023-03-04T08:05:33.408Z,7.75
2023-03-04T08:09:37.999Z,7.78
2023-03-04T08:13:41.691Z,7.77
2023-03-04T08:17:45.254Z,7.77
2023-03-04T08:21:48.133Z,7.75
2023-03-04T08:25:53.257Z,7.77
2023-03-04T08:29:56.218Z,7.83
2023-03-04T08:33:59.230Z,7.94
2023-03-04T08:38:02.626Z,8.08
2023-03-04T08:42:08.095Z,8.26
2023-03-04T08:46:11.235Z,8.46
2023-03-04T08:50:14.675Z,8.77
2023-03-04T08:54:17.879Z,9.12
2023-03-04T08:58:22.613Z,9.49
2023-03-04T09:02:25.662Z,9.83
2023-03-04T09:06:28.797Z,10.10
2023-03-04T09:10:31.878Z,10.26
2023-03-04T09:14:38.182Z,10.37
2023-03-04T09:18:41.740Z,10.42
2023-03-04T09:22:45.060Z,10.55
2023-03-04T09:26:51.687Z,10.75
2023-03-04T09:30:56.408Z,10.98
2023-03-04T09:34:59.331Z,11.25
2023-03-04T09:39:04.277Z,11.55
2023-03-04T09:43:12.744Z,11.84
2023-03-04T09:47:19.700Z,12.04
2023-03-04T09:51:24.901Z,12.23
2023-03-04T09:55:35.954Z,12.45
2023-03-04T09:59:46.107Z,12.63
2023-03-04T10:14:46.064Z,13.06
2023-03-04T10:18:54.701Z,13.13
2023-03-04T10:23:00.897Z,13.25
2023-03-04T10:27:08.570Z,13.42
2023-03-04T10:31:22.744Z,13.63
2023-03-04T10:35:34.574Z,13.82
2023-03-04T10:39:40.206Z,13.94
2023-03-04T10:43:45.513Z,14.04
2023-03-04T10:47:55.724Z,14.13
2023-03-04T10:52:04.280Z,14.21
2023-03-04T10:56:26.217Z,14.30
2023-03-04T11:00:32.089Z,14.32
2023-03-04T11:04:38.052Z,14.33
2023-03-04T11:08:42.345Z,14.31
2023-03-04T11:12:50.781Z,14.32
2023-03-04T11:16:57.315Z,14.35
2023-03-04T11:21:03.335Z,14.40
2023-03-04T11:25:09.463Z,14.49
2023-03-04T11:29:18.571Z,14.59
2023-03-04T11:33:28.120Z,14.67
2023-03-04T11:37:39.481Z,14.78
2023-03-04T11:41:50.612Z,14.85
2023-03-04T11:46:21.918Z,14.91
2023-03-04T11:50:38.907Z,14.92
2023-03-04T11:55:06.458Z,14.92
2023-03-04T11:59:32.109Z,14.97
2023-03-04T12:03:56.727Z,15.00
2023-03-04T12:08:33.499Z,14.98
2023-03-04T12:12:55.582Z,15.01
2023-03-04T12:17:35.647Z,14.94
2023-03-04T12:22:03.607Z,14.89
2023-03-04T12:26:18.112Z,14.96
2023-03-04T12:30:38.111Z,15.00
2023-03-04T12:34:58.856Z,14.99
2023-03-04T12:39:08.738Z,14.96
2023-03-04T12:43:36.531Z,14.88
2023-03-04T12:47:51.692Z,14.76
2023-03-04T12:52:04.273Z,14.66
2023-03-04T12:56:10.319Z,14.55
2023-03-04T13:00:36.242Z,14.46
2023-03-04T13:04:54.769Z,14.54
2023-03-04T13:09:06.456Z,14.60
2023-03-04T13:13:43.338Z,14.66
2023-03-04T13:17:49.266Z,14.73
2023-03-04T13:21:55.261Z,14.72
2023-03-04T13:26:21.454Z,14.68
2023-03-04T13:31:05.793Z,14.51
2023-03-04T13:35:42.056Z,14.30
2023-03-04T13:39:45.445Z,14.08
2023-03-04T13:43:50.598Z,13.91
2023-03-04T13:47:55.842Z,13.84
2023-03-04T13:51:59.946Z,13.85
2023-03-04T13:56:20.089Z,13.94
2023-03-04T14:00:23.169Z,14.05
2023-03-04T14:04:33.940Z,14.15
2023-03-04T14:08:36.820Z,14.21
2023-03-04T14:12:45.585Z,14.27
2023-03-04T14:16:51.287Z,14.32
2023-03-04T14:20:59.390Z,14.35
2023-03-04T14:25:05.990Z,14.34
2023-03-04T14:29:24.008Z,14.35
2023-03-04T14:33:29.409Z,14.34
2023-03-04T14:37:44.225Z,14.31
2023-03-04T14:41:50.517Z,14.23
2023-03-04T14:45:56.425Z,14.13
2023-03-04T14:49:59.537Z,14.00
2023-03-04T14:54:04.386Z,13.90
2023-03-04T14:58:09.680Z,13.76
2023-03-04T15:02:31.692Z,13.61
2023-03-04T15:06:36.344Z,13.43
2023-03-04T15:10:41.070Z,13.24
2023-03-04T15:19:02.510Z,12.80
2023-03-04T15:23:10.044Z,12.58
2023-03-04T15:27:17.516Z,12.41
2023-03-04T15:31:22.596Z,12.23
2023-03-04T15:35:29.905Z,12.07
2023-03-04T15:39:33.621Z,11.87
2023-03-04T15:43:39.148Z,11.68
2023-03-04T15:47:43.271Z,11.47
2023-03-04T15:51:46.726Z,11.26
2023-03-04T15:55:49.874Z,11.05
2023-03-04T15:59:55.622Z,10.86
2023-03-04T16:03:58.530Z,10.65
2023-03-04T16:08:01.957Z,10.45
2023-03-04T16:12:05.119Z,10.25
2023-03-04T16:16:13.790Z,10.04
2023-03-04T16:20:19.211Z,9.78
2023-03-04T16:24:22.518Z,9.51
2023-03-04T16:28:25.485Z,9.23
2023-03-04T16:32:32.569Z,8.95
2023-03-04T16:36:37.437Z,8.63
2023-03-04T16:40:40.984Z,8.39
2023-03-04T16:44:44.150Z,8.10
2023-03-04T16:48:49.752Z,7.78
2023-03-04T16:52:52.656Z,7.57
2023-03-04T16:56:55.994Z,7.31
2023-03-04T17:00:59.171Z,7.06
2023-03-04T17:05:04.618Z,6.84
2023-03-04T17:09:08.251Z,6.61
2023-03-04T17:13:11.486Z,6.41
2023-03-04T17:17:16.272Z,6.23
2023-03-04T17:21:24.506Z,6.04
2023-03-04T17:25:27.910Z,5.96
2023-03-04T17:29:31.193Z,5.81
2023-03-04T17:33:34.138Z,5.66
2023-03-04T17:37:38.874Z,5.52
2023-03-04T17:41:42.026Z,5.36
2023-03-04T17:45:45.626Z,5.27
2023-03-04T17:49:48.804Z,5.19
2023-03-04T17:53:53.619Z,5.09
2023-03-04T17:57:58.332Z,5.02
2023-03-04T18:02:01.515Z,4.92
2023-03-04T18:06:04.816Z,4.85
2023-03-04T18:10:10.696Z,4.80
2023-03-04T18:14:14.352Z,4.75
2023-03-04T18:18:17.636Z,4.71
2023-03-04T18:22:20.591Z,4.67
2023-03-04T18:26:27.085Z,4.64
2023-03-04T18:30:29.988Z,4.60
2023-03-04T18:34:33.246Z,4.57
2023-03-04T18:38:36.605Z,4.53
2023-03-04T18:42:45.151Z,4.45
2023-03-04T18:46:51.789Z,4.39
2023-03-04T18:50:58.595Z,4.32
2023-03-04T18:55:01.531Z,4.20
2023-03-04T18:59:08.423Z,4.10
2023-03-04T19:03:14.032Z,3.98
2023-03-04T19:07:17.658Z,3.98
2023-03-04T19:11:20.562Z,3.82
2023-03-04T19:15:25.704Z,3.81
2023-03-04T19:19:28.628Z,3.67
2023-03-04T19:23:31.985Z,3.63
2023-03-04T19:27:34.943Z,3.62
2023-03-04T19:31:41.698Z,3.58
2023-03-04T19:35:48.262Z,3.51
2023-03-04T19:39:52.518Z,3.57
2023-03-04T19:43:55.618Z,3.64
2023-03-04T19:48:00.683Z,3.73
2023-03-04T19:52:03.673Z,3.81
2023-03-04T19:56:07.668Z,3.90
2023-03-04T20:00:11.969Z,3.99
2023-03-04T20:04:18.703Z,4.07
2023-03-04T20:08:21.631Z,4.15
2023-03-04T20:12:25.650Z,4.25
2023-03-04T20:16:29.597Z,4.28
2023-03-04T20:20:34.147Z,4.36
2023-03-04T20:24:37.601Z,4.42
2023-03-04T20:28:40.940Z,4.49
2023-03-04T20:32:44.134Z,4.45
2023-03-04T20:36:48.512Z,4.57
2023-03-04T20:40:51.596Z,4.60
2023-03-04T20:44:56.101Z,4.67
2023-03-04T20:49:01.344Z,4.71
2023-03-04T20:53:06.144Z,4.73
2023-03-04T20:57:10.797Z,4.70
2023-03-04T21:01:14.694Z,4.80
2023-03-04T21:05:17.769Z,4.81
2023-03-04T21:09:25.459Z,4.84
2023-03-04T21:13:30.585Z,4.84
2023-03-04T21:17:34.222Z,4.87
2023-03-04T21:21:37.274Z,4.88
2023-03-04T21:25:42.571Z,4.89
2023-03-04T21:29:45.959Z,4.90
2023-03-04T21:33:49.653Z,4.89
2023-03-04T21:37:52.778Z,4.91
2023-03-04T21:41:58.279Z,4.93
2023-03-04T21:46:01.489Z,4.93
2023-03-04T21:50:05.872Z,4.95
2023-03-04T21:54:10.046Z,4.94
2023-03-04T21:58:14.716Z,4.94
2023-03-04T22:02:20.219Z,4.94
2023-03-04T22:06:41.465Z,4.94
2023-03-04T22:10:47.340Z,4.94
2023-03-04T22:14:52.551Z,4.95
2023-03-04T22:18:55.912Z,4.94
2023-03-04T22:22:59.157Z,4.95
2023-03-04T22:27:02.150Z,4.97
2023-03-04T22:31:15.414Z,4.99
2023-03-04T22:35:18.764Z,4.98
2023-03-04T22:39:23.248Z,4.98
2023-03-04T22:43:26.644Z,5.01
2023-03-04T22:47:32.242Z,5.02
2023-03-04T22:51:35.246Z,5.03
2023-03-04T22:55:38.453Z,5.06
2023-03-04T22:59:41.454Z,5.08
2023-03-04T23:03:47.485Z,5.10
2023-03-04T23:07:52.436Z,5.10
2023-03-04T23:11:55.709Z,5.12
2023-03-04T23:15:58.567Z,5.14
2023-03-04T23:20:03.846Z,5.16
2023-03-04T23:24:08.418Z,5.17
2023-03-04T23:28:12.009Z,5.18
2023-03-04T23:32:15.064Z,5.18
2023-03-04T23:36:20.701Z,5.22
2023-03-04T23:40:23.625Z,5.21
2023-03-04T23:44:26.953Z,5.21
2023-03-04T23:48:30.217Z,5.20
2023-03-04T23:52:34.792Z,5.20
2023-03-04T23:56:37.892Z,5.18
